UAE23 EGKK-LFPG
Flight info
| Callsign | UAE23 |
|---|---|
| Flight time | N/A |
| Altitude | 23000 |
| Route | SFD4Z SFD M605 HARDY UM605 BIBAX BIBAX9W |
| Aircraft | A388/H-V/N |
Departure
| Time | 2026-05-07 13:01 |
|---|---|
| Airport | London Gatwick Airport (EGKK) |
Arrival
| Time | N/A |
|---|---|
| Airport | Charles de Gaulle International Airport (LFPG) |
| Time | Latitude | Longitude | Altitude | Speed | Heading |
|---|---|---|---|---|---|
| 2026-05-07 12:21 | 51.15839 | -0.17519 | 210 ft | 0 kts | 347° |
| 2026-05-07 12:44 | 51.15825 | -0.17514 | 214 ft | 4 kts | 347° |
| 2026-05-07 12:45 | 51.15799 | -0.17505 | 214 ft | 4 kts | 348° |
| 2026-05-07 12:45 | 51.15778 | -0.17495 | 224 ft | 4 kts | 306° |
| 2026-05-07 12:45 | 51.15771 | -0.17462 | 224 ft | 4 kts | 269° |
| 2026-05-07 12:45 | 51.15774 | -0.17422 | 221 ft | 2 kts | 258° |
| 2026-05-07 12:46 | 51.15775 | -0.17412 | 221 ft | 0 kts | 258° |
| 2026-05-07 12:46 | 51.15775 | -0.17413 | 221 ft | 0 kts | 258° |
| 2026-05-07 12:51 | 51.15763 | -0.17475 | 223 ft | 8 kts | 227° |
| 2026-05-07 12:52 | 51.15689 | -0.17485 | 214 ft | 15 kts | 170° |
| 2026-05-07 12:52 | 51.15555 | -0.17449 | 220 ft | 23 kts | 170° |
| 2026-05-07 12:52 | 51.15383 | -0.17385 | 213 ft | 25 kts | 167° |
| 2026-05-07 12:52 | 51.15314 | -0.17406 | 219 ft | 12 kts | 236° |
| 2026-05-07 12:53 | 51.15282 | -0.17576 | 213 ft | 21 kts | 259° |
| 2026-05-07 12:53 | 51.15248 | -0.17843 | 210 ft | 28 kts | 256° |
| 2026-05-07 12:53 | 51.15206 | -0.18172 | 210 ft | 33 kts | 260° |
| 2026-05-07 12:53 | 51.15156 | -0.18558 | 216 ft | 38 kts | 257° |
| 2026-05-07 12:54 | 51.15096 | -0.18985 | 216 ft | 41 kts | 259° |
| 2026-05-07 12:54 | 51.15052 | -0.19239 | 214 ft | 13 kts | 215° |
| 2026-05-07 12:54 | 51.14969 | -0.19328 | 220 ft | 17 kts | 241° |
| 2026-05-07 12:54 | 51.14931 | -0.19560 | 214 ft | 26 kts | 265° |
| 2026-05-07 12:55 | 51.14885 | -0.19862 | 222 ft | 32 kts | 256° |
| 2026-05-07 12:55 | 51.14833 | -0.20236 | 214 ft | 37 kts | 258° |
| 2026-05-07 12:55 | 51.14774 | -0.20654 | 209 ft | 40 kts | 257° |
| 2026-05-07 12:55 | 51.14715 | -0.21097 | 213 ft | 42 kts | 258° |
| 2026-05-07 12:56 | 51.14697 | -0.21220 | 221 ft | 0 kts | 257° |
| 2026-05-07 12:57 | 51.14692 | -0.21257 | 219 ft | 8 kts | 256° |
| 2026-05-07 12:57 | 51.14653 | -0.21328 | 215 ft | 11 kts | 192° |
| 2026-05-07 12:58 | 51.14622 | -0.21329 | 216 ft | 0 kts | 171° |
| 2026-05-07 12:59 | 51.14616 | -0.21328 | 215 ft | 4 kts | 171° |
| 2026-05-07 12:59 | 51.14572 | -0.21309 | 213 ft | 9 kts | 153° |
| 2026-05-07 13:00 | 51.14527 | -0.21220 | 216 ft | 12 kts | 101° |
| 2026-05-07 13:00 | 51.14535 | -0.21069 | 218 ft | 25 kts | 78° |
| 2026-05-07 13:00 | 51.14637 | -0.20307 | 217 ft | 124 kts | 78° |
| 2026-05-07 13:00 | 51.14875 | -0.18673 | 307 ft | 178 kts | 77° |
| 2026-05-07 13:01 | 51.15186 | -0.16656 | 1022 ft | 187 kts | 77° |
| 2026-05-07 13:01 | 51.15475 | -0.14583 | 1744 ft | 193 kts | 78° |
| 2026-05-07 13:01 | 51.15742 | -0.12546 | 2406 ft | 189 kts | 79° |
| 2026-05-07 13:01 | 51.16006 | -0.10500 | 3092 ft | 188 kts | 78° |
| 2026-05-07 13:02 | 51.16083 | -0.08381 | 3509 ft | 201 kts | 101° |
| 2026-05-07 13:02 | 51.15455 | -0.06326 | 3712 ft | 217 kts | 132° |
| 2026-05-07 13:02 | 51.14148 | -0.05017 | 3957 ft | 233 kts | 166° |
| 2026-05-07 13:02 | 51.12508 | -0.04565 | 4650 ft | 246 kts | 171° |
| 2026-05-07 13:03 | 51.10751 | -0.04024 | 5216 ft | 265 kts | 169° |
| 2026-05-07 13:03 | 51.08957 | -0.03367 | 5914 ft | 270 kts | 164° |
| 2026-05-07 13:03 | 51.07152 | -0.02494 | 6008 ft | 271 kts | 163° |
| 2026-05-07 13:03 | 51.05356 | -0.01618 | 6003 ft | 269 kts | 163° |
| 2026-05-07 13:04 | 51.04193 | -0.01055 | 6004 ft | 268 kts | 163° |